sensor_id;sensor_type;location;lat;lon;timestamp;pressure;altitude;pressure_sealevel;temperature;humidity
54600;BME280;40500;51.084;16.958;2023-02-16T00:01:26;101206.27;;;-2.18;100.00
54600;BME280;40500;51.084;16.958;2023-02-16T00:03:56;101206.48;;;-2.21;100.00
54600;BME280;40500;51.084;16.958;2023-02-16T00:06:27;101203.81;;;-2.26;100.00
54600;BME280;40500;51.084;16.958;2023-02-16T00:08:56;101202.92;;;-2.27;100.00
54600;BME280;40500;51.084;16.958;2023-02-16T00:11:27;101195.21;;;-2.27;100.00
54600;BME280;40500;51.084;16.958;2023-02-16T00:14:17;101198.28;;;-2.27;100.00
54600;BME280;40500;51.084;16.958;2023-02-16T00:16:48;101200.10;;;-2.25;100.00
54600;BME280;40500;51.084;16.958;2023-02-16T00:19:19;101202.38;;;-2.28;100.00
54600;BME280;40500;51.084;16.958;2023-02-16T00:21:47;101205.40;;;-2.29;100.00
54600;BME280;40500;51.084;16.958;2023-02-16T00:24:15;101203.79;;;-2.30;100.00
54600;BME280;40500;51.084;16.958;2023-02-16T00:26:44;101203.05;;;-2.31;100.00
54600;BME280;40500;51.084;16.958;2023-02-16T00:29:17;101196.60;;;-2.33;100.00
54600;BME280;40500;51.084;16.958;2023-02-16T00:31:45;101191.61;;;-2.34;100.00
54600;BME280;40500;51.084;16.958;2023-02-16T00:34:26;101194.55;;;-2.33;100.00
54600;BME280;40500;51.084;16.958;2023-02-16T00:36:55;101196.08;;;-2.34;100.00
54600;BME280;40500;51.084;16.958;2023-02-16T00:39:24;101196.99;;;-2.32;100.00
54600;BME280;40500;51.084;16.958;2023-02-16T00:41:54;101197.39;;;-2.31;100.00
54600;BME280;40500;51.084;16.958;2023-02-16T00:44:32;101203.39;;;-2.31;100.00
54600;BME280;40500;51.084;16.958;2023-02-16T00:47:07;101200.29;;;-2.32;100.00
54600;BME280;40500;51.084;16.958;2023-02-16T00:49:41;101202.13;;;-2.32;100.00
54600;BME280;40500;51.084;16.958;2023-02-16T00:52:23;101201.91;;;-2.33;100.00
54600;BME280;40500;51.084;16.958;2023-02-16T00:54:52;101201.92;;;-2.33;100.00
54600;BME280;40500;51.084;16.958;2023-02-16T00:57:20;101199.33;;;-2.34;100.00
54600;BME280;40500;51.084;16.958;2023-02-16T00:59:52;101194.69;;;-2.34;100.00
54600;BME280;40500;51.084;16.958;2023-02-16T01:02:22;101193.27;;;-2.35;100.00
54600;BME280;40500;51.084;16.958;2023-02-16T01:04:50;101189.27;;;-2.32;100.00
54600;BME280;40500;51.084;16.958;2023-02-16T01:07:19;101187.94;;;-2.32;100.00
54600;BME280;40500;51.084;16.958;2023-02-16T01:10:11;101190.34;;;-2.31;100.00
54600;BME280;40500;51.084;16.958;2023-02-16T01:12:57;101191.39;;;-2.31;100.00
54600;BME280;40500;51.084;16.958;2023-02-16T01:15:27;101188.77;;;-2.29;100.00
54600;BME280;40500;51.084;16.958;2023-02-16T01:17:55;101192.25;;;-2.28;100.00
54600;BME280;40500;51.084;16.958;2023-02-16T01:20:24;101196.90;;;-2.34;100.00
54600;BME280;40500;51.084;16.958;2023-02-16T01:22:52;101198.17;;;-2.44;100.00
54600;BME280;40500;51.084;16.958;2023-02-16T01:25:20;101200.05;;;-2.50;100.00
54600;BME280;40500;51.084;16.958;2023-02-16T01:27:48;101197.59;;;-2.55;100.00
54600;BME280;40500;51.084;16.958;2023-02-16T01:30:19;101193.83;;;-2.58;100.00
54600;BME280;40500;51.084;16.958;2023-02-16T01:32:48;101189.94;;;-2.61;100.00
54600;BME280;40500;51.084;16.958;2023-02-16T01:35:18;101192.95;;;-2.62;100.00
54600;BME280;40500;51.084;16.958;2023-02-16T01:37:46;101189.77;;;-2.64;100.00
54600;BME280;40500;51.084;16.958;2023-02-16T01:40:25;101180.08;;;-2.66;100.00
54600;BME280;40500;51.084;16.958;2023-02-16T01:43:01;101175.11;;;-2.66;100.00
54600;BME280;40500;51.084;16.958;2023-02-16T01:45:34;101174.41;;;-2.63;100.00
54600;BME280;40500;51.084;16.958;2023-02-16T01:48:04;101168.36;;;-2.63;100.00
54600;BME280;40500;51.084;16.958;2023-02-16T01:50:42;101168.11;;;-2.65;100.00
54600;BME280;40500;51.084;16.958;2023-02-16T01:53:18;101165.09;;;-2.67;100.00
54600;BME280;40500;51.084;16.958;2023-02-16T01:55:52;101159.70;;;-2.66;100.00
54600;BME280;40500;51.084;16.958;2023-02-16T01:58:28;101156.86;;;-2.64;100.00
54600;BME280;40500;51.084;16.958;2023-02-16T02:01:31;101154.60;;;-2.61;100.00
54600;BME280;40500;51.084;16.958;2023-02-16T02:04:10;101152.46;;;-2.63;100.00
54600;BME280;40500;51.084;16.958;2023-02-16T02:06:56;101152.07;;;-2.64;100.00
54600;BME280;40500;51.084;16.958;2023-02-16T02:09:30;101155.15;;;-2.64;100.00
54600;BME280;40500;51.084;16.958;2023-02-16T02:12:07;101154.36;;;-2.69;100.00
54600;BME280;40500;51.084;16.958;2023-02-16T02:14:42;101144.86;;;-2.74;100.00
54600;BME280;40500;51.084;16.958;2023-02-16T02:17:12;101150.02;;;-2.77;100.00
54600;BME280;40500;51.084;16.958;2023-02-16T02:19:53;101145.82;;;-2.75;100.00
54600;BME280;40500;51.084;16.958;2023-02-16T02:22:50;101145.34;;;-2.72;100.00
54600;BME280;40500;51.084;16.958;2023-02-16T02:28:44;101139.40;;;-2.74;100.00
54600;BME280;40500;51.084;16.958;2023-02-16T02:31:24;101131.15;;;-2.74;100.00
54600;BME280;40500;51.084;16.958;2023-02-16T02:34:07;101129.93;;;-2.74;100.00
54600;BME280;40500;51.084;16.958;2023-02-16T02:36:39;101131.05;;;-2.73;100.00
54600;BME280;40500;51.084;16.958;2023-02-16T02:39:22;101138.01;;;-2.71;100.00
54600;BME280;40500;51.084;16.958;2023-02-16T02:41:59;101133.71;;;-2.67;100.00
54600;BME280;40500;51.084;16.958;2023-02-16T02:44:48;101133.91;;;-2.67;100.00
54600;BME280;40500;51.084;16.958;2023-02-16T02:47:18;101131.73;;;-2.69;100.00
54600;BME280;40500;51.084;16.958;2023-02-16T02:49:50;101132.06;;;-2.70;100.00
54600;BME280;40500;51.084;16.958;2023-02-16T02:52:19;101126.70;;;-2.74;100.00
54600;BME280;40500;51.084;16.958;2023-02-16T02:54:48;101126.46;;;-2.79;100.00
54600;BME280;40500;51.084;16.958;2023-02-16T02:57:39;101129.98;;;-2.81;100.00
54600;BME280;40500;51.084;16.958;2023-02-16T03:00:29;101128.80;;;-2.81;100.00
54600;BME280;40500;51.084;16.958;2023-02-16T03:03:14;101126.70;;;-2.85;100.00
54600;BME280;40500;51.084;16.958;2023-02-16T03:05:46;101126.01;;;-2.92;100.00
54600;BME280;40500;51.084;16.958;2023-02-16T03:08:19;101123.41;;;-2.95;100.00
54600;BME280;40500;51.084;16.958;2023-02-16T03:10:52;101122.27;;;-2.98;100.00
54600;BME280;40500;51.084;16.958;2023-02-16T03:13:43;101120.87;;;-2.98;100.00
54600;BME280;40500;51.084;16.958;2023-02-16T03:16:15;101113.89;;;-2.97;100.00
54600;BME280;40500;51.084;16.958;2023-02-16T03:18:46;101115.08;;;-2.98;100.00
54600;BME280;40500;51.084;16.958;2023-02-16T03:21:33;101117.58;;;-2.99;100.00
54600;BME280;40500;51.084;16.958;2023-02-16T03:24:23;101121.73;;;-2.99;100.00
54600;BME280;40500;51.084;16.958;2023-02-16T03:27:12;101119.20;;;-2.97;100.00
54600;BME280;40500;51.084;16.958;2023-02-16T03:30:02;101109.34;;;-2.93;100.00
54600;BME280;40500;51.084;16.958;2023-02-16T03:32:31;101106.35;;;-2.91;100.00
54600;BME280;40500;51.084;16.958;2023-02-16T03:35:01;101107.00;;;-2.88;100.00
54600;BME280;40500;51.084;16.958;2023-02-16T03:37:28;101115.12;;;-2.87;100.00
54600;BME280;40500;51.084;16.958;2023-02-16T03:39:56;101117.66;;;-2.84;100.00
54600;BME280;40500;51.084;16.958;2023-02-16T03:42:48;101115.20;;;-2.89;100.00
54600;BME280;40500;51.084;16.958;2023-02-16T03:45:18;101115.36;;;-2.96;100.00
54600;BME280;40500;51.084;16.958;2023-02-16T03:47:46;101116.08;;;-3.02;100.00
54600;BME280;40500;51.084;16.958;2023-02-16T03:50:14;101115.77;;;-3.04;100.00
54600;BME280;40500;51.084;16.958;2023-02-16T03:52:42;101123.41;;;-3.06;100.00
54600;BME280;40500;51.084;16.958;2023-02-16T03:55:09;101121.73;;;-3.12;100.00
54600;BME280;40500;51.084;16.958;2023-02-16T03:57:37;101114.88;;;-3.15;100.00
54600;BME280;40500;51.084;16.958;2023-02-16T04:00:07;101113.73;;;-3.18;100.00
54600;BME280;40500;51.084;16.958;2023-02-16T04:02:43;101114.48;;;-3.16;100.00
54600;BME280;40500;51.084;16.958;2023-02-16T04:05:11;101119.83;;;-3.12;100.00
54600;BME280;40500;51.084;16.958;2023-02-16T04:07:38;101116.89;;;-3.09;100.00
54600;BME280;40500;51.084;16.958;2023-02-16T04:10:07;101119.73;;;-3.08;100.00
54600;BME280;40500;51.084;16.958;2023-02-16T04:12:36;101120.05;;;-3.05;100.00
54600;BME280;40500;51.084;16.958;2023-02-16T04:15:06;101121.80;;;-3.00;100.00
54600;BME280;40500;51.084;16.958;2023-02-16T04:17:34;101122.77;;;-2.98;100.00
54600;BME280;40500;51.084;16.958;2023-02-16T04:20:17;101123.15;;;-2.97;100.00
54600;BME280;40500;51.084;16.958;2023-02-16T04:22:46;101122.14;;;-2.97;100.00
54600;BME280;40500;51.084;16.958;2023-02-16T04:25:15;101120.02;;;-2.95;100.00
54600;BME280;40500;51.084;16.958;2023-02-16T04:27:43;101118.92;;;-2.93;100.00
54600;BME280;40500;51.084;16.958;2023-02-16T04:30:15;101116.59;;;-2.95;100.00
54600;BME280;40500;51.084;16.958;2023-02-16T04:32:43;101116.59;;;-2.98;100.00
54600;BME280;40500;51.084;16.958;2023-02-16T04:35:14;101113.06;;;-3.01;100.00
54600;BME280;40500;51.084;16.958;2023-02-16T04:37:42;101108.77;;;-3.01;100.00
54600;BME280;40500;51.084;16.958;2023-02-16T04:40:15;101106.73;;;-3.00;100.00
54600;BME280;40500;51.084;16.958;2023-02-16T04:42:44;101103.52;;;-2.99;100.00
54600;BME280;40500;51.084;16.958;2023-02-16T04:45:12;101105.90;;;-3.00;100.00
54600;BME280;40500;51.084;16.958;2023-02-16T04:47:40;101102.45;;;-3.10;100.00
54600;BME280;40500;51.084;16.958;2023-02-16T04:50:08;101101.17;;;-3.19;100.00
54600;BME280;40500;51.084;16.958;2023-02-16T04:52:36;101103.15;;;-3.20;100.00
54600;BME280;40500;51.084;16.958;2023-02-16T04:55:09;101108.62;;;-3.21;100.00
54600;BME280;40500;51.084;16.958;2023-02-16T04:57:37;101106.64;;;-3.23;100.00
54600;BME280;40500;51.084;16.958;2023-02-16T05:00:08;101099.41;;;-3.23;100.00
54600;BME280;40500;51.084;16.958;2023-02-16T05:02:37;101100.40;;;-3.24;100.00
54600;BME280;40500;51.084;16.958;2023-02-16T05:05:06;101106.63;;;-3.26;100.00
54600;BME280;40500;51.084;16.958;2023-02-16T05:07:34;101102.23;;;-3.28;100.00
54600;BME280;40500;51.084;16.958;2023-02-16T05:10:04;101101.58;;;-3.31;100.00
54600;BME280;40500;51.084;16.958;2023-02-16T05:12:32;101100.42;;;-3.30;100.00
54600;BME280;40500;51.084;16.958;2023-02-16T05:15:18;101095.23;;;-3.28;100.00
54600;BME280;40500;51.084;16.958;2023-02-16T05:17:46;101094.76;;;-3.24;100.00
54600;BME280;40500;51.084;16.958;2023-02-16T05:20:13;101096.30;;;-3.20;100.00
54600;BME280;40500;51.084;16.958;2023-02-16T05:22:41;101091.94;;;-3.19;100.00
54600;BME280;40500;51.084;16.958;2023-02-16T05:25:10;101091.10;;;-3.18;100.00
54600;BME280;40500;51.084;16.958;2023-02-16T05:27:38;101089.48;;;-3.16;100.00
54600;BME280;40500;51.084;16.958;2023-02-16T05:30:10;101092.17;;;-3.14;100.00
54600;BME280;40500;51.084;16.958;2023-02-16T05:32:38;101094.41;;;-3.10;100.00
54600;BME280;40500;51.084;16.958;2023-02-16T05:35:06;101099.94;;;-3.06;100.00
54600;BME280;40500;51.084;16.958;2023-02-16T05:37:34;101098.30;;;-3.01;100.00
54600;BME280;40500;51.084;16.958;2023-02-16T05:40:01;101100.95;;;-2.99;100.00
54600;BME280;40500;51.084;16.958;2023-02-16T05:42:29;101100.82;;;-3.02;100.00
54600;BME280;40500;51.084;16.958;2023-02-16T05:44:56;101102.70;;;-3.05;100.00
54600;BME280;40500;51.084;16.958;2023-02-16T05:47:24;101104.91;;;-3.09;100.00
54600;BME280;40500;51.084;16.958;2023-02-16T05:49:51;101101.17;;;-3.12;100.00
54600;BME280;40500;51.084;16.958;2023-02-16T05:52:19;101104.73;;;-3.16;100.00
54600;BME280;40500;51.084;16.958;2023-02-16T05:54:47;101108.28;;;-3.17;100.00
54600;BME280;40500;51.084;16.958;2023-02-16T05:57:16;101116.36;;;-3.20;100.00
54600;BME280;40500;51.084;16.958;2023-02-16T05:59:44;101119.48;;;-3.19;100.00
54600;BME280;40500;51.084;16.958;2023-02-16T06:02:12;101119.26;;;-3.20;100.00
54600;BME280;40500;51.084;16.958;2023-02-16T06:04:39;101121.08;;;-3.22;100.00
54600;BME280;40500;51.084;16.958;2023-02-16T06:07:07;101114.68;;;-3.19;100.00
54600;BME280;40500;51.084;16.958;2023-02-16T06:09:35;101117.11;;;-3.15;100.00
54600;BME280;40500;51.084;16.958;2023-02-16T06:12:03;101117.71;;;-3.17;100.00
54600;BME280;40500;51.084;16.958;2023-02-16T06:14:31;101120.44;;;-3.17;100.00
54600;BME280;40500;51.084;16.958;2023-02-16T06:16:58;101122.66;;;-3.17;100.00
54600;BME280;40500;51.084;16.958;2023-02-16T06:19:27;101123.47;;;-3.18;100.00
54600;BME280;40500;51.084;16.958;2023-02-16T06:21:55;101129.59;;;-3.23;100.00
54600;BME280;40500;51.084;16.958;2023-02-16T06:24:25;101128.38;;;-3.26;100.00
54600;BME280;40500;51.084;16.958;2023-02-16T06:26:53;101130.21;;;-3.27;100.00
54600;BME280;40500;51.084;16.958;2023-02-16T06:29:20;101132.64;;;-3.27;100.00
54600;BME280;40500;51.084;16.958;2023-02-16T06:31:48;101127.48;;;-3.24;100.00
54600;BME280;40500;51.084;16.958;2023-02-16T06:34:16;101131.96;;;-3.20;100.00
54600;BME280;40500;51.084;16.958;2023-02-16T06:36:46;101127.83;;;-3.17;100.00
54600;BME280;40500;51.084;16.958;2023-02-16T06:39:14;101126.63;;;-3.17;100.00
54600;BME280;40500;51.084;16.958;2023-02-16T06:41:41;101129.45;;;-3.12;100.00
54600;BME280;40500;51.084;16.958;2023-02-16T06:44:10;101127.10;;;-3.07;100.00
54600;BME280;40500;51.084;16.958;2023-02-16T06:46:40;101127.53;;;-3.03;100.00
54600;BME280;40500;51.084;16.958;2023-02-16T06:49:12;101130.06;;;-3.00;100.00
54600;BME280;40500;51.084;16.958;2023-02-16T06:51:40;101129.90;;;-2.96;100.00
54600;BME280;40500;51.084;16.958;2023-02-16T06:54:10;101131.68;;;-2.91;100.00
54600;BME280;40500;51.084;16.958;2023-02-16T06:56:41;101129.73;;;-2.89;100.00
54600;BME280;40500;51.084;16.958;2023-02-16T06:59:09;101127.08;;;-2.87;100.00
54600;BME280;40500;51.084;16.958;2023-02-16T07:01:37;101131.45;;;-2.79;100.00
54600;BME280;40500;51.084;16.958;2023-02-16T07:04:04;101133.23;;;-2.67;100.00
54600;BME280;40500;51.084;16.958;2023-02-16T07:06:32;101135.37;;;-2.55;100.00
54600;BME280;40500;51.084;16.958;2023-02-16T07:08:59;101136.06;;;-2.44;100.00
54600;BME280;40500;51.084;16.958;2023-02-16T07:11:27;101135.80;;;-2.35;100.00
54600;BME280;40500;51.084;16.958;2023-02-16T07:13:57;101136.73;;;-2.27;100.00
54600;BME280;40500;51.084;16.958;2023-02-16T07:16:25;101133.90;;;-2.17;100.00
54600;BME280;40500;51.084;16.958;2023-02-16T07:18:52;101135.85;;;-2.09;100.00
54600;BME280;40500;51.084;16.958;2023-02-16T07:21:20;101133.04;;;-1.99;100.00
54600;BME280;40500;51.084;16.958;2023-02-16T07:23:48;101131.09;;;-1.89;100.00
54600;BME280;40500;51.084;16.958;2023-02-16T07:26:17;101128.52;;;-1.78;100.00
54600;BME280;40500;51.084;16.958;2023-02-16T07:28:47;101129.78;;;-1.65;100.00
54600;BME280;40500;51.084;16.958;2023-02-16T07:31:16;101128.66;;;-1.55;100.00
54600;BME280;40500;51.084;16.958;2023-02-16T07:33:44;101129.17;;;-1.44;100.00
54600;BME280;40500;51.084;16.958;2023-02-16T07:36:12;101127.56;;;-1.34;100.00
54600;BME280;40500;51.084;16.958;2023-02-16T07:38:40;101129.27;;;-1.22;100.00
54600;BME280;40500;51.084;16.958;2023-02-16T07:41:08;101125.41;;;-1.12;100.00
54600;BME280;40500;51.084;16.958;2023-02-16T07:43:37;101124.90;;;-1.04;100.00
54600;BME280;40500;51.084;16.958;2023-02-16T07:46:06;101127.05;;;-0.94;100.00
54600;BME280;40500;51.084;16.958;2023-02-16T07:48:34;101129.70;;;-0.84;100.00
54600;BME280;40500;51.084;16.958;2023-02-16T07:51:02;101123.81;;;-0.72;100.00
54600;BME280;40500;51.084;16.958;2023-02-16T07:53:30;101121.00;;;-0.53;100.00
54600;BME280;40500;51.084;16.958;2023-02-16T07:55:58;101120.61;;;-0.24;100.00
54600;BME280;40500;51.084;16.958;2023-02-16T07:58:25;101110.64;;;-0.02;100.00
54600;BME280;40500;51.084;16.958;2023-02-16T08:00:54;101107.94;;;0.14;100.00
54600;BME280;40500;51.084;16.958;2023-02-16T08:03:22;101111.34;;;0.40;100.00
54600;BME280;40500;51.084;16.958;2023-02-16T08:05:51;101101.46;;;0.68;100.00
54600;BME280;40500;51.084;16.958;2023-02-16T08:08:18;101105.77;;;0.98;100.00
54600;BME280;40500;51.084;16.958;2023-02-16T08:10:46;101109.14;;;1.31;100.00
54600;BME280;40500;51.084;16.958;2023-02-16T08:13:13;101110.59;;;1.55;100.00
54600;BME280;40500;51.084;16.958;2023-02-16T08:15:42;101106.56;;;1.64;100.00
54600;BME280;40500;51.084;16.958;2023-02-16T08:18:10;101102.10;;;1.70;100.00
54600;BME280;40500;51.084;16.958;2023-02-16T08:20:41;101099.04;;;1.77;100.00
54600;BME280;40500;51.084;16.958;2023-02-16T08:23:27;101090.59;;;1.88;100.00
54600;BME280;40500;51.084;16.958;2023-02-16T08:25:55;101087.86;;;1.95;100.00
54600;BME280;40500;51.084;16.958;2023-02-16T08:28:25;101088.61;;;2.04;100.00
54600;BME280;40500;51.084;16.958;2023-02-16T08:30:54;101087.66;;;2.13;100.00
54600;BME280;40500;51.084;16.958;2023-02-16T08:33:22;101087.95;;;2.22;100.00
54600;BME280;40500;51.084;16.958;2023-02-16T08:35:49;101091.12;;;2.30;100.00
54600;BME280;40500;51.084;16.958;2023-02-16T08:38:17;101095.52;;;2.39;100.00
54600;BME280;40500;51.084;16.958;2023-02-16T08:40:47;101091.97;;;2.48;100.00
54600;BME280;40500;51.084;16.958;2023-02-16T08:43:15;101098.52;;;2.59;100.00
54600;BME280;40500;51.084;16.958;2023-02-16T08:45:44;101097.05;;;2.69;100.00
54600;BME280;40500;51.084;16.958;2023-02-16T08:48:13;101096.98;;;2.79;100.00
54600;BME280;40500;51.084;16.958;2023-02-16T08:50:43;101092.94;;;2.90;100.00
54600;BME280;40500;51.084;16.958;2023-02-16T08:53:14;101094.79;;;3.01;100.00
54600;BME280;40500;51.084;16.958;2023-02-16T08:55:42;101099.06;;;3.12;100.00
54600;BME280;40500;51.084;16.958;2023-02-16T08:58:17;101095.34;;;3.23;100.00
54600;BME280;40500;51.084;16.958;2023-02-16T09:00:45;101095.95;;;3.34;100.00
54600;BME280;40500;51.084;16.958;2023-02-16T09:03:13;101097.63;;;3.45;100.00
54600;BME280;40500;51.084;16.958;2023-02-16T09:05:42;101094.58;;;3.55;100.00
54600;BME280;40500;51.084;16.958;2023-02-16T09:08:13;101093.29;;;3.67;100.00
54600;BME280;40500;51.084;16.958;2023-02-16T09:10:42;101095.79;;;3.78;100.00
54600;BME280;40500;51.084;16.958;2023-02-16T09:13:10;101095.48;;;3.87;100.00
54600;BME280;40500;51.084;16.958;2023-02-16T09:15:40;101093.83;;;3.99;100.00
54600;BME280;40500;51.084;16.958;2023-02-16T09:18:09;101093.57;;;4.10;100.00
54600;BME280;40500;51.084;16.958;2023-02-16T09:20:37;101093.42;;;4.20;100.00
54600;BME280;40500;51.084;16.958;2023-02-16T09:23:09;101086.86;;;4.30;100.00
54600;BME280;40500;51.084;16.958;2023-02-16T09:25:39;101089.89;;;4.42;100.00
54600;BME280;40500;51.084;16.958;2023-02-16T09:28:08;101090.98;;;4.54;100.00
54600;BME280;40500;51.084;16.958;2023-02-16T09:30:38;101091.55;;;4.64;100.00
54600;BME280;40500;51.084;16.958;2023-02-16T09:33:06;101089.45;;;4.72;100.00
54600;BME280;40500;51.084;16.958;2023-02-16T09:35:34;101085.73;;;4.79;100.00
54600;BME280;40500;51.084;16.958;2023-02-16T09:38:04;101083.63;;;4.86;100.00
54600;BME280;40500;51.084;16.958;2023-02-16T09:40:34;101084.77;;;4.92;100.00
54600;BME280;40500;51.084;16.958;2023-02-16T09:43:11;101085.21;;;4.97;100.00
54600;BME280;40500;51.084;16.958;2023-02-16T09:45:43;101086.23;;;5.06;100.00
54600;BME280;40500;51.084;16.958;2023-02-16T09:48:22;101074.77;;;5.15;100.00
54600;BME280;40500;51.084;16.958;2023-02-16T09:50:53;101074.71;;;5.23;100.00
54600;BME280;40500;51.084;16.958;2023-02-16T09:53:27;101073.23;;;5.27;100.00
54600;BME280;40500;51.084;16.958;2023-02-16T09:56:06;101074.69;;;5.32;100.00
54600;BME280;40500;51.084;16.958;2023-02-16T09:58:36;101073.75;;;5.38;100.00
54600;BME280;40500;51.084;16.958;2023-02-16T10:01:12;101076.23;;;5.41;100.00
54600;BME280;40500;51.084;16.958;2023-02-16T10:03:54;101077.55;;;5.47;100.00
54600;BME280;40500;51.084;16.958;2023-02-16T10:06:35;101075.38;;;5.52;100.00
54600;BME280;40500;51.084;16.958;2023-02-16T10:09:12;101077.40;;;5.60;100.00
54600;BME280;40500;51.084;16.958;2023-02-16T10:11:46;101071.77;;;5.66;100.00
54600;BME280;40500;51.084;16.958;2023-02-16T10:14:23;101070.98;;;5.73;100.00
54600;BME280;40500;51.084;16.958;2023-02-16T10:16:55;101067.92;;;5.78;100.00
54600;BME280;40500;51.084;16.958;2023-02-16T10:19:28;101063.79;;;5.81;100.00
54600;BME280;40500;51.084;16.958;2023-02-16T10:24:58;101070.45;;;5.95;100.00
54600;BME280;40500;51.084;16.958;2023-02-16T10:27:32;101071.64;;;6.05;100.00
54600;BME280;40500;51.084;16.958;2023-02-16T10:30:12;101071.05;;;6.13;100.00
54600;BME280;40500;51.084;16.958;2023-02-16T10:32:53;101078.77;;;6.18;100.00
54600;BME280;40500;51.084;16.958;2023-02-16T10:35:31;101082.46;;;6.22;100.00
54600;BME280;40500;51.084;16.958;2023-02-16T10:38:07;101081.32;;;6.27;100.00
54600;BME280;40500;51.084;16.958;2023-02-16T10:40:47;101080.20;;;6.36;100.00
54600;BME280;40500;51.084;16.958;2023-02-16T10:43:23;101078.39;;;6.44;100.00
54600;BME280;40500;51.084;16.958;2023-02-16T10:45:54;101070.64;;;6.50;100.00
54600;BME280;40500;51.084;16.958;2023-02-16T10:48:25;101065.52;;;6.59;100.00
54600;BME280;40500;51.084;16.958;2023-02-16T10:50:56;101061.04;;;6.64;100.00
54600;BME280;40500;51.084;16.958;2023-02-16T10:53:37;101064.94;;;6.70;100.00
54600;BME280;40500;51.084;16.958;2023-02-16T10:56:24;101061.18;;;6.77;100.00
54600;BME280;40500;51.084;16.958;2023-02-16T10:58:56;101059.16;;;6.85;100.00
54600;BME280;40500;51.084;16.958;2023-02-16T11:01:35;101066.73;;;6.92;100.00
54600;BME280;40500;51.084;16.958;2023-02-16T11:04:05;101063.44;;;6.95;100.00
54600;BME280;40500;51.084;16.958;2023-02-16T11:06:32;101061.91;;;6.98;100.00
54600;BME280;40500;51.084;16.958;2023-02-16T11:09:03;101055.14;;;7.01;100.00
54600;BME280;40500;51.084;16.958;2023-02-16T11:11:36;101057.41;;;7.02;100.00
54600;BME280;40500;51.084;16.958;2023-02-16T11:14:07;101057.64;;;7.08;100.00
54600;BME280;40500;51.084;16.958;2023-02-16T11:16:44;101053.34;;;7.14;100.00
54600;BME280;40500;51.084;16.958;2023-02-16T11:19:19;101045.20;;;7.18;100.00
54600;BME280;40500;51.084;16.958;2023-02-16T11:21:50;101048.05;;;7.27;100.00
54600;BME280;40500;51.084;16.958;2023-02-16T11:24:28;101052.30;;;7.37;100.00
54600;BME280;40500;51.084;16.958;2023-02-16T11:27:05;101050.63;;;7.45;100.00
54600;BME280;40500;51.084;16.958;2023-02-16T11:29:34;101044.73;;;7.48;100.00
54600;BME280;40500;51.084;16.958;2023-02-16T11:32:06;101047.86;;;7.49;100.00
54600;BME280;40500;51.084;16.958;2023-02-16T11:34:36;101051.75;;;7.56;100.00
54600;BME280;40500;51.084;16.958;2023-02-16T11:37:13;101048.61;;;7.57;100.00
54600;BME280;40500;51.084;16.958;2023-02-16T11:39:47;101047.94;;;7.59;100.00
54600;BME280;40500;51.084;16.958;2023-02-16T11:42:26;101047.09;;;7.61;100.00
54600;BME280;40500;51.084;16.958;2023-02-16T11:44:58;101048.52;;;7.68;100.00
54600;BME280;40500;51.084;16.958;2023-02-16T11:47:30;101044.23;;;7.79;100.00
54600;BME280;40500;51.084;16.958;2023-02-16T11:58:18;101040.70;;;8.04;100.00
54600;BME280;40500;51.084;16.958;2023-02-16T12:00:58;101038.60;;;8.06;100.00
54600;BME280;40500;51.084;16.958;2023-02-16T12:03:47;101032.70;;;8.11;100.00
54600;BME280;40500;51.084;16.958;2023-02-16T12:06:31;101031.50;;;8.16;100.00
54600;BME280;40500;51.084;16.958;2023-02-16T12:09:15;101029.96;;;8.22;100.00
54600;BME280;40500;51.084;16.958;2023-02-16T12:11:58;101026.30;;;8.25;100.00
54600;BME280;40500;51.084;16.958;2023-02-16T12:14:41;101026.52;;;8.34;100.00
54600;BME280;40500;51.084;16.958;2023-02-16T12:17:22;101020.30;;;8.43;100.00
54600;BME280;40500;51.084;16.958;2023-02-16T12:20:04;101019.61;;;8.50;100.00
54600;BME280;40500;51.084;16.958;2023-02-16T12:22:46;101020.31;;;8.53;100.00
54600;BME280;40500;51.084;16.958;2023-02-16T12:25:23;101015.96;;;8.61;100.00
54600;BME280;40500;51.084;16.958;2023-02-16T12:27:56;101015.30;;;8.80;100.00
54600;BME280;40500;51.084;16.958;2023-02-16T12:30:35;101016.54;;;8.99;100.00
54600;BME280;40500;51.084;16.958;2023-02-16T12:33:21;101010.78;;;9.19;100.00
54600;BME280;40500;51.084;16.958;2023-02-16T12:36:14;101005.17;;;9.23;100.00
54600;BME280;40500;51.084;16.958;2023-02-16T12:38:59;101006.23;;;9.25;100.00
54600;BME280;40500;51.084;16.958;2023-02-16T12:41:42;100999.94;;;9.20;100.00
54600;BME280;40500;51.084;16.958;2023-02-16T12:44:16;101002.21;;;9.20;100.00
54600;BME280;40500;51.084;16.958;2023-02-16T12:46:46;101001.86;;;9.15;100.00
54600;BME280;40500;51.084;16.958;2023-02-16T12:49:17;101004.84;;;9.13;100.00
54600;BME280;40500;51.084;16.958;2023-02-16T12:51:49;101004.33;;;9.14;100.00
54600;BME280;40500;51.084;16.958;2023-02-16T12:54:23;101003.27;;;9.16;100.00
54600;BME280;40500;51.084;16.958;2023-02-16T12:56:56;100996.27;;;9.21;100.00
54600;BME280;40500;51.084;16.958;2023-02-16T12:59:33;100993.46;;;9.33;100.00
54600;BME280;40500;51.084;16.958;2023-02-16T13:02:04;100989.40;;;9.58;100.00
54600;BME280;40500;51.084;16.958;2023-02-16T13:04:41;100988.50;;;9.60;100.00
54600;BME280;40500;51.084;16.958;2023-02-16T13:07:15;100982.20;;;9.65;100.00
54600;BME280;40500;51.084;16.958;2023-02-16T13:09:52;100987.71;;;9.93;100.00
54600;BME280;40500;51.084;16.958;2023-02-16T13:12:32;100979.76;;;10.50;100.00
54600;BME280;40500;51.084;16.958;2023-02-16T13:15:08;100967.29;;;11.00;100.00